Time;durP1;ratioP1;P1;durP2;ratioP2;P2;SDS_P1;SDS_P2;PMS_P1;PMS_P2;Temp;Humidity;BMP_temperature;BMP_pressure;BME280_temperature;BME280_humidity;BME280_pressure;Samples;Min_cycle;Max_cycle;Signal;HPM_P1;HPM_P2
2022/05/20 00:01:06;;;;;;;5.30;3.25;;;;;;;16.71;100.00;95464.50;4790378;30;20036;-88
2022/05/20 00:03:32;;;;;;;6.95;3.17;;;;;;;16.45;100.00;95462.09;4790224;30;20035;-87
2022/05/20 00:05:59;;;;;;;10.43;3.75;;;;;;;16.32;100.00;95460.88;4776800;30;20338;-90
2022/05/20 00:08:25;;;;;;;5.93;3.40;;;;;;;16.45;100.00;95467.38;4793109;30;20061;-87
2022/05/20 00:10:53;;;;;;;9.10;3.67;;;;;;;16.62;100.00;95459.03;4808629;29;20035;-87
2022/05/20 00:13:24;;;;;;;9.43;3.53;;;;;;;16.68;100.00;95465.88;4793581;30;20107;-87
2022/05/20 00:15:50;;;;;;;7.75;3.20;;;;;;;16.78;100.00;95460.44;4793411;30;20066;-88
2022/05/20 00:18:16;;;;;;;8.55;3.30;;;;;;;16.56;100.00;95465.44;4793295;30;20042;-88
2022/05/20 00:20:41;;;;;;;4.25;3.08;;;;;;;16.71;100.00;95475.09;4778610;30;20125;-88
2022/05/20 00:23:08;;;;;;;5.95;3.00;;;;;;;16.74;100.00;95469.25;4778425;30;20038;-88
2022/05/20 00:25:46;;;;;;;8.18;2.88;;;;;;;16.85;100.00;95469.94;4778250;30;20041;-88
2022/05/20 00:28:14;;;;;;;7.05;3.28;;;;;;;16.81;100.00;95475.00;4780106;30;20035;-88
2022/05/20 00:30:41;;;;;;;5.55;2.97;;;;;;;16.97;100.00;95467.69;4808315;29;20334;-90
2022/05/20 00:33:06;;;;;;;10.45;3.00;;;;;;;17.20;100.00;95475.94;4792955;30;20035;-89
2022/05/20 00:35:32;;;;;;;8.82;3.10;;;;;;;17.29;100.00;95473.50;4778159;30;20443;-88
2022/05/20 00:37:57;;;;;;;8.05;3.30;;;;;;;17.28;100.00;95467.38;4778066;30;20456;-91
2022/05/20 00:40:26;;;;;;;5.75;3.33;;;;;;;17.44;100.00;95467.22;4792631;30;20527;-88
2022/05/20 00:43:02;;;;;;;6.05;3.22;;;;;;;17.46;100.00;95462.41;4792883;30;20038;-88
2022/05/20 00:45:34;;;;;;;11.15;3.20;;;;;;;17.41;100.00;95473.09;4792845;30;20043;-88
2022/05/20 00:48:00;;;;;;;6.07;2.97;;;;;;;17.37;100.00;95475.50;4793146;30;20038;-89
2022/05/20 00:50:28;;;;;;;6.80;3.22;;;;;;;17.47;100.00;95469.28;4793096;30;20031;-89
2022/05/20 00:52:54;;;;;;;5.88;2.90;;;;;;;17.56;100.00;95483.50;4807756;29;20042;-88
2022/05/20 00:55:21;;;;;;;7.45;3.13;;;;;;;17.63;100.00;95470.66;4792833;30;20345;-88
2022/05/20 00:57:52;;;;;;;7.10;2.88;;;;;;;17.69;100.00;95462.66;4778162;30;20066;-88
2022/05/20 01:00:21;;;;;;;7.07;2.90;;;;;;;17.70;100.00;95469.53;4792524;29;20421;-88
2022/05/20 01:02:47;;;;;;;5.93;2.88;;;;;;;17.80;100.00;95464.88;4807609;29;20437;-88
2022/05/20 01:05:41;;;;;;;10.40;3.30;;;;;;;17.70;100.00;95470.31;4807649;29;20437;-88
2022/05/20 01:08:10;;;;;;;8.20;3.25;;;;;;;17.69;100.00;95467.97;4792976;30;20031;-88
2022/05/20 01:10:35;;;;;;;6.93;3.17;;;;;;;17.36;100.00;95465.97;4792669;30;20059;-91
2022/05/20 01:13:01;;;;;;;7.65;3.30;;;;;;;17.21;100.00;95470.38;4792370;30;20131;-89
2022/05/20 01:15:30;;;;;;;4.65;3.00;;;;;;;17.33;100.00;95469.19;4777882;30;20042;-88
2022/05/20 01:17:57;;;;;;;8.07;3.33;;;;;;;16.84;100.00;95466.50;4792513;30;20123;-88
2022/05/20 01:20:26;;;;;;;8.15;3.03;;;;;;;16.72;100.00;95458.94;4792355;30;20035;-88
2022/05/20 01:22:58;;;;;;;7.03;3.20;;;;;;;16.70;100.00;95463.72;4807539;29;20058;-88
2022/05/20 01:25:25;;;;;;;9.60;3.17;;;;;;;16.92;100.00;95470.38;4793244;29;20395;-88
2022/05/20 01:27:50;;;;;;;11.02;3.22;;;;;;;16.74;100.00;95464.72;4777433;30;20031;-89
2022/05/20 01:30:18;;;;;;;7.00;3.20;;;;;;;16.78;100.00;95464.97;4791956;30;20031;-88
2022/05/20 01:32:44;;;;;;;5.65;3.03;;;;;;;16.92;100.00;95467.72;4792156;30;20042;-88
2022/05/20 01:35:38;;;;;;;5.85;3.22;;;;;;;16.70;100.00;95469.00;4807070;29;20341;-89
2022/05/20 01:38:05;;;;;;;6.35;3.38;;;;;;;16.98;100.00;95471.94;4806057;29;20023;-88
2022/05/20 01:40:39;;;;;;;9.60;3.60;;;;;;;17.14;100.00;95469.91;4777300;30;20085;-89
2022/05/20 01:43:48;;;;;;;7.28;3.28;;;;;;;17.00;100.00;95464.53;4807114;29;20035;-88
2022/05/20 01:46:20;;;;;;;4.70;2.92;;;;;;;16.94;100.00;95461.09;4807251;29;20027;-89
2022/05/20 01:49:23;;;;;;;5.85;3.10;;;;;;;16.78;100.00;95459.69;4806911;29;20031;-88
2022/05/20 01:52:00;;;;;;;9.80;3.65;;;;;;;16.54;100.00;95457.78;4807020;29;20095;-88
2022/05/20 01:54:39;;;;;;;4.93;3.35;;;;;;;16.52;100.00;95459.91;4806712;29;20039;-88
2022/05/20 01:57:31;;;;;;;6.50;3.28;;;;;;;16.51;100.00;95460.97;4807003;29;20042;-88
2022/05/20 02:00:06;;;;;;;8.80;3.28;;;;;;;16.37;100.00;95466.13;4797567;29;20043;-89
2022/05/20 02:02:42;;;;;;;6.30;3.40;;;;;;;16.51;100.00;95467.06;4806878;29;20088;-88
2022/05/20 02:05:25;;;;;;;11.88;3.55;;;;;;;16.55;100.00;95467.28;4791630;30;20046;-88
2022/05/20 02:07:57;;;;;;;6.35;3.60;;;;;;;16.61;100.00;95465.38;4778362;30;20042;-88
2022/05/20 02:10:34;;;;;;;8.73;3.40;;;;;;;16.34;100.00;95462.19;4791126;29;20345;-88
2022/05/20 02:13:01;;;;;;;8.15;3.53;;;;;;;16.50;100.00;95464.69;4791880;30;20422;-88
2022/05/20 02:15:56;;;;;;;6.85;3.53;;;;;;;16.63;100.00;95468.53;4777672;30;20096;-88
2022/05/20 02:18:42;;;;;;;8.82;3.95;;;;;;;16.59;100.00;95470.16;4791332;30;20412;-88
2022/05/20 02:21:11;;;;;;;6.05;3.63;;;;;;;16.17;100.00;95459.91;4805971;29;20043;-88
2022/05/20 02:24:00;;;;;;;7.30;3.60;;;;;;;16.18;100.00;95460.72;4802966;29;20081;-88
2022/05/20 02:26:29;;;;;;;8.02;3.30;;;;;;;16.10;100.00;95456.81;4806195;29;20031;-88
2022/05/20 02:29:01;;;;;;;10.43;3.45;;;;;;;16.29;100.00;95453.50;4788083;30;20066;-88
2022/05/20 02:31:47;;;;;;;7.90;3.35;;;;;;;16.33;100.00;95462.44;4775580;30;20131;-89
2022/05/20 02:34:12;;;;;;;5.63;3.58;;;;;;;16.28;100.00;95467.78;4788408;30;20100;-88
2022/05/20 02:36:41;;;;;;;10.38;4.15;;;;;;;15.94;100.00;95464.03;4773672;30;20369;-88
2022/05/20 02:39:14;;;;;;;10.48;3.60;;;;;;;15.71;100.00;95460.19;4790901;30;20039;-89
2022/05/20 02:41:43;;;;;;;5.35;3.47;;;;;;;16.02;100.00;95460.81;4814773;29;20038;-88
2022/05/20 02:44:08;;;;;;;5.82;3.47;;;;;;;16.08;100.00;95458.94;4808842;29;20038;-88
2022/05/20 02:46:34;;;;;;;12.95;4.05;;;;;;;15.80;100.00;95448.75;4809256;29;20429;-89
2022/05/20 02:49:06;;;;;;;7.05;3.38;;;;;;;15.76;100.00;95454.88;4794043;29;20037;-91
2022/05/20 02:51:32;;;;;;;8.03;4.07;;;;;;;15.49;100.00;95446.28;4809277;29;20038;-88
2022/05/20 02:54:00;;;;;;;8.63;3.60;;;;;;;15.50;100.00;95449.75;4794381;29;20052;-88
2022/05/20 02:56:28;;;;;;;7.22;3.72;;;;;;;15.82;100.00;95451.91;4794567;29;20039;-89
2022/05/20 03:04:24;;;;;;;6.35;3.45;;;;;;;15.58;100.00;95459.72;4821953;29;19921;-88
2022/05/20 03:07:01;;;;;;;;;;;;;;;;;;;;;
2022/05/20 03:09:34;;;;;;;7.20;3.85;;;;;;;15.62;100.00;95447.53;4822688;29;20445;-88
2022/05/20 03:12:02;;;;;;;7.57;3.63;;;;;;;15.60;100.00;95457.59;4823127;29;20038;-88
2022/05/20 03:14:34;;;;;;;8.93;4.07;;;;;;;15.63;100.00;95457.03;4824292;29;20141;-88
2022/05/20 03:17:07;;;;;;;7.37;4.30;;;;;;;15.68;100.00;95458.88;4809283;29;20038;-90
2022/05/20 03:19:33;;;;;;;8.00;4.25;;;;;;;15.45;100.00;95452.38;4794890;29;20413;-89
2022/05/20 03:22:03;;;;;;;8.20;4.15;;;;;;;15.60;100.00;95459.47;4794249;29;20039;-88
2022/05/20 03:24:29;;;;;;;14.15;3.78;;;;;;;15.48;100.00;95452.63;4812315;29;20063;-91
2022/05/20 03:26:54;;;;;;;9.02;3.65;;;;;;;15.63;100.00;95449.13;4797340;29;20093;-87
2022/05/20 03:29:20;;;;;;;8.02;4.00;;;;;;;15.67;100.00;95452.81;4797395;29;20062;-88
2022/05/20 03:31:49;;;;;;;6.53;3.63;;;;;;;15.82;100.00;95457.19;4797416;29;20066;-88
2022/05/20 03:34:22;;;;;;;10.65;3.72;;;;;;;15.71;100.00;95465.47;4812084;29;20042;-88
2022/05/20 03:36:56;;;;;;;8.30;3.50;;;;;;;15.85;100.00;95461.16;4812419;29;20096;-88
2022/05/20 03:39:25;;;;;;;5.90;3.72;;;;;;;15.80;100.00;95458.56;4812119;29;20062;-88
2022/05/20 03:41:56;;;;;;;6.35;3.90;;;;;;;15.75;100.00;95456.72;4812092;29;20046;-88
2022/05/20 03:44:24;;;;;;;5.20;3.38;;;;;;;15.63;100.00;95457.03;4812710;29;20036;-88
2022/05/20 03:46:57;;;;;;;6.32;4.03;;;;;;;15.50;100.00;95455.78;4797548;29;20511;-88
2022/05/20 03:49:27;;;;;;;10.30;3.83;;;;;;;15.54;100.00;95466.59;4811991;29;20037;-88
2022/05/20 03:52:14;;;;;;;7.72;3.95;;;;;;;15.67;100.00;95459.94;4812144;29;20062;-91
2022/05/20 03:54:54;;;;;;;;;;;;;;;;;;;;;
2022/05/20 03:57:21;;;;;;;7.38;3.95;;;;;;;15.80;100.00;95467.25;4811615;29;20039;-91
2022/05/20 03:59:46;;;;;;;7.25;3.40;;;;;;;15.83;100.00;95463.28;4811381;29;20096;-88
2022/05/20 04:02:13;;;;;;;8.43;3.63;;;;;;;15.95;100.00;95476.19;4812034;29;20046;-89
2022/05/20 04:04:45;;;;;;;8.40;3.50;;;;;;;15.81;100.00;95473.34;4811758;29;20049;-88
2022/05/20 04:07:16;;;;;;;5.78;3.30;;;;;;;15.79;100.00;95462.25;4811911;29;20038;-88
2022/05/20 04:09:52;;;;;;;;;;;;;;;;;;;;;
2022/05/20 04:12:57;;;;;;;;;;;;;;;;;;;;;
2022/05/20 04:15:23;;;;;;;10.32;3.03;;;;;;;16.11;100.00;95467.09;4812309;29;20027;-90
2022/05/20 04:17:48;;;;;;;7.68;3.20;;;;;;;16.27;100.00;95474.13;4811569;29;20130;-90
2022/05/20 04:20:21;;;;;;;12.65;3.53;;;;;;;16.34;100.00;95472.75;4796620;29;20432;-88
2022/05/20 04:22:48;;;;;;;5.20;3.17;;;;;;;16.35;100.00;95473.53;4812471;29;20035;-91
2022/05/20 04:25:14;;;;;;;6.28;3.53;;;;;;;16.26;100.00;95475.97;4796853;29;20044;-92
2022/05/20 04:27:39;;;;;;;8.65;3.92;;;;;;;16.39;100.00;95477.22;4796459;29;20034;-93
2022/05/20 04:30:16;;;;;;;5.88;3.20;;;;;;;16.33;100.00;95479.13;4796262;29;20062;-90
2022/05/20 04:32:43;;;;;;;4.93;3.20;;;;;;;16.49;100.00;95482.41;4797500;29;20126;-90
2022/05/20 04:35:09;;;;;;;8.07;3.20;;;;;;;16.58;100.00;95479.19;4811020;29;20044;-91
2022/05/20 04:37:34;;;;;;;6.72;3.40;;;;;;;16.61;100.00;95486.56;4811150;29;20433;-91
2022/05/20 04:40:02;;;;;;;7.80;4.20;;;;;;;16.55;100.00;95483.16;4796199;29;20043;-91
2022/05/20 04:48:05;;;;;;;;;;;;;;;;;;;;;
2022/05/20 04:50:53;;;;;;;;;;;;;;;;;;;;;
2022/05/20 04:56:06;;;;;;;9.80;3.25;;;;;;;16.96;100.00;95496.00;4800292;29;20104;-90
2022/05/20 04:58:44;;;;;;;;;;;;;;;;;;;;;
2022/05/20 05:01:17;;;;;;;6.63;3.50;;;;;;;17.11;100.00;95499.59;4806309;29;20039;-90
2022/05/20 05:03:52;;;;;;;;;;;;;;;;;;;;;
2022/05/20 05:06:28;;;;;;;;;;;;;;;;;;;;;
2022/05/20 05:08:56;;;;;;;6.00;3.08;;;;;;;17.32;100.00;95504.72;4774949;30;20031;-90
2022/05/20 05:11:58;;;;;;;5.40;3.13;;;;;;;17.42;100.00;95506.44;4795002;29;20031;-91
2022/05/20 05:14:24;;;;;;;5.85;3.22;;;;;;;17.45;100.00;95503.22;4774707;30;20063;-90
2022/05/20 05:16:49;;;;;;;6.63;3.22;;;;;;;17.33;100.00;95504.41;4774829;30;20040;-89
2022/05/20 05:19:17;;;;;;;8.57;3.22;;;;;;;17.11;100.00;95502.25;4774995;30;20032;-90
2022/05/20 05:21:45;;;;;;;8.45;3.72;;;;;;;17.21;100.00;95502.16;4789010;30;20050;-90
2022/05/20 05:24:10;;;;;;;6.70;3.80;;;;;;;17.21;100.00;95501.34;4759941;30;20406;-89
2022/05/20 05:26:36;;;;;;;7.07;3.45;;;;;;;17.26;100.00;95506.63;4789395;30;20043;-91
2022/05/20 05:29:03;;;;;;;4.97;3.25;;;;;;;17.45;100.00;95497.94;4789089;30;20464;-90
2022/05/20 05:31:30;;;;;;;7.95;3.53;;;;;;;17.50;100.00;95503.97;4774205;30;20060;-90
2022/05/20 05:33:56;;;;;;;7.20;3.25;;;;;;;17.91;100.00;95509.81;4774241;30;20073;-90
2022/05/20 05:36:31;;;;;;;;;;;;;;;;;;;;;
2022/05/20 05:38:57;;;;;;;5.18;3.22;;;;;;;18.18;100.00;95509.19;4787895;30;20327;-90
2022/05/20 05:41:22;;;;;;;6.45;3.55;;;;;;;18.04;100.00;95497.72;4774446;30;20042;-90
2022/05/20 05:43:51;;;;;;;5.93;3.53;;;;;;;17.96;100.00;95501.78;4774011;30;20035;-90
2022/05/20 05:46:16;;;;;;;11.45;3.50;;;;;;;17.98;100.00;95514.78;4758475;30;20032;-93
2022/05/20 05:48:42;;;;;;;8.57;3.55;;;;;;;18.37;100.00;95511.84;4788893;30;20031;-90
2022/05/20 05:51:09;;;;;;;5.93;3.17;;;;;;;18.66;100.00;95510.09;4773991;30;20117;-90
2022/05/20 05:53:42;;;;;;;6.47;3.65;;;;;;;18.76;100.00;95517.09;4773874;30;20047;-90
2022/05/20 05:56:09;;;;;;;5.00;3.07;;;;;;;18.43;100.00;95509.91;4760027;30;20460;-89
2022/05/20 05:58:45;;;;;;;;;;;;;;;;;;;;;
2022/05/20 06:01:13;;;;;;;8.32;3.78;;;;;;;18.88;100.00;95520.06;4774002;30;20476;-90
2022/05/20 06:03:44;;;;;;;5.70;3.55;;;;;;;19.01;100.00;95518.53;4773908;30;20107;-90
2022/05/20 06:06:09;;;;;;;6.22;3.05;;;;;;;19.13;100.00;95518.06;4773703;30;20042;-89
2022/05/20 06:08:35;;;;;;;7.28;3.15;;;;;;;19.10;100.00;95525.84;4788771;30;20390;-93
2022/05/20 06:11:00;;;;;;;8.23;3.45;;;;;;;19.44;100.00;95516.69;4788433;30;20046;-90
2022/05/20 06:13:29;;;;;;;9.63;3.60;;;;;;;19.44;100.00;95524.69;4758932;30;20362;-92
2022/05/20 06:15:56;;;;;;;7.65;2.97;;;;;;;19.69;100.00;95518.06;4773867;30;20043;-93
2022/05/20 06:18:21;;;;;;;5.00;2.92;;;;;;;19.43;100.00;95523.88;4773468;30;20149;-91
2022/05/20 06:20:48;;;;;;;13.93;3.65;;;;;;;19.56;100.00;95524.97;4773551;30;20048;-90
2022/05/20 06:23:14;;;;;;;4.90;3.35;;;;;;;19.88;100.00;95522.47;4773626;30;20129;-90
2022/05/20 06:25:39;;;;;;;5.80;3.13;;;;;;;19.71;100.00;95523.84;4774340;30;20035;-92
2022/05/20 06:28:11;;;;;;;9.05;3.17;;;;;;;20.13;100.00;95525.69;4788685;30;20031;-89
2022/05/20 06:30:38;;;;;;;5.97;3.05;;;;;;;20.15;100.00;95526.97;4773125;30;20362;-93
2022/05/20 06:33:04;;;;;;;5.15;2.92;;;;;;;20.11;100.00;95526.00;4773158;30;20456;-90
2022/05/20 06:40:59;;;;;;;4.22;2.90;;;;;;;20.46;100.00;95530.81;4774211;30;20127;-90
2022/05/20 06:43:26;;;;;;;5.15;2.78;;;;;;;20.52;100.00;95524.28;4774206;30;20098;-93
2022/05/20 06:45:56;;;;;;;7.88;3.05;;;;;;;20.35;100.00;95522.28;4773412;30;20031;-93
2022/05/20 06:48:22;;;;;;;5.28;2.92;;;;;;;20.25;100.00;95527.84;4773132;30;20036;-90
2022/05/20 06:50:48;;;;;;;8.63;3.08;;;;;;;20.70;100.00;95527.06;4786688;30;20043;-90
2022/05/20 06:53:18;;;;;;;5.43;3.20;;;;;;;20.77;100.00;95532.75;4805984;29;20437;-92
2022/05/20 06:55:46;;;;;;;4.70;3.25;;;;;;;20.93;100.00;95532.41;4791014;30;20042;-90
2022/05/20 06:58:11;;;;;;;4.68;2.83;;;;;;;20.88;100.00;95534.13;4804659;29;20043;-90
2022/05/20 07:00:47;;;;;;;;;;;;;;;;;;;;;
2022/05/20 07:03:23;;;;;;;;;;;;;;;;;;;;;
2022/05/20 07:05:50;;;;;;;5.55;3.00;;;;;;;21.00;100.00;95536.22;4803735;29;20027;-93
2022/05/20 07:08:24;;;;;;;6.30;2.60;;;;;;;21.27;100.00;95533.66;4804624;29;20038;-90
2022/05/20 07:10:56;;;;;;;6.43;3.00;;;;;;;20.75;100.00;95537.59;4790377;30;20031;-92
2022/05/20 07:13:25;;;;;;;3.87;2.67;;;;;;;21.23;100.00;95538.84;4790087;30;20031;-91
2022/05/20 07:15:50;;;;;;;10.00;3.03;;;;;;;21.32;100.00;95533.53;4804445;29;20038;-91
2022/05/20 07:18:16;;;;;;;7.68;3.58;;;;;;;21.31;100.00;95542.63;4789920;30;20327;-91
2022/05/20 07:20:42;;;;;;;7.80;2.95;;;;;;;21.58;100.00;95538.94;4790093;30;20085;-93
2022/05/20 07:23:09;;;;;;;5.65;3.22;;;;;;;21.56;100.00;95540.34;4789980;29;20043;-92
2022/05/20 07:25:37;;;;;;;6.20;3.22;;;;;;;21.75;100.00;95535.59;4775187;30;20043;-92
2022/05/20 07:28:02;;;;;;;4.97;3.13;;;;;;;21.66;100.00;95533.97;4804517;29;20096;-92
2022/05/20 07:30:28;;;;;;;8.77;3.40;;;;;;;21.82;100.00;95532.47;4775222;30;20043;-91
2022/05/20 07:32:54;;;;;;;9.70;2.97;;;;;;;21.86;100.00;95530.75;4804733;29;20429;-92
2022/05/20 07:35:23;;;;;;;5.05;2.90;;;;;;;21.98;100.00;95532.78;4774806;30;20035;-91
2022/05/20 07:37:52;;;;;;;9.60;3.22;;;;;;;21.84;100.00;95534.81;4790214;30;20040;-91
2022/05/20 07:40:18;;;;;;;8.00;3.00;;;;;;;22.11;100.00;95520.41;4789906;30;20103;-92
2022/05/20 07:42:49;;;;;;;7.30;3.15;;;;;;;22.34;100.00;95528.25;4774987;30;20096;-92
2022/05/20 07:45:25;;;;;;;;;;;;;;;;;;;;;
2022/05/20 07:47:54;;;;;;;7.18;2.97;;;;;;;22.22;100.00;95528.91;4789687;30;20024;-92
2022/05/20 07:50:20;;;;;;;8.18;3.05;;;;;;;22.38;100.00;95531.09;4804219;29;20088;-91
2022/05/20 07:55:34;;;;;;;5.35;2.90;;;;;;;22.83;100.00;95519.31;4789631;30;20054;-93
2022/05/20 07:58:04;;;;;;;7.80;3.05;;;;;;;22.94;100.00;95523.19;4762469;29;1293898;-93
2022/05/20 08:00:32;;;;;;;7.88;3.25;;;;;;;22.99;100.00;95519.56;4790627;30;20062;-91
2022/05/20 08:03:01;;;;;;;5.82;2.90;;;;;;;23.16;100.00;95524.06;4804953;29;20112;-89
2022/05/20 08:05:37;;;;;;;9.60;3.50;;;;;;;23.22;100.00;95522.03;4775522;30;20089;-90
2022/05/20 08:08:08;;;;;;;6.93;2.78;;;;;;;23.41;100.00;95518.97;4790250;29;20026;-90
2022/05/20 08:10:35;;;;;;;6.68;2.90;;;;;;;23.34;100.00;95524.03;4793583;30;20035;-89
2022/05/20 08:13:03;;;;;;;5.95;2.80;;;;;;;23.35;100.00;95521.06;4808714;29;20039;-90
2022/05/20 08:15:29;;;;;;;5.93;3.15;;;;;;;23.38;100.00;95522.28;4793477;29;20035;-90
2022/05/20 08:17:55;;;;;;;7.72;3.05;;;;;;;23.48;100.00;95518.47;4793180;30;20445;-89
2022/05/20 08:20:25;;;;;;;6.03;2.85;;;;;;;23.67;100.00;95520.72;4793666;30;20038;-90
2022/05/20 08:22:58;;;;;;;7.10;2.90;;;;;;;23.41;100.00;95522.44;4793242;30;20067;-89
2022/05/20 08:25:24;;;;;;;6.55;3.00;;;;;;;23.25;100.00;95524.03;4793167;30;20361;-89
2022/05/20 08:27:51;;;;;;;6.05;3.05;;;;;;;23.59;100.00;95530.38;4778550;30;20100;-90
2022/05/20 08:30:25;;;;;;;8.23;2.95;;;;;;;23.57;100.00;95521.88;4808140;29;20110;-90
2022/05/20 08:32:58;;;;;;;5.85;3.00;;;;;;;23.67;100.00;95518.84;4778583;30;20031;-90
2022/05/20 08:35:26;;;;;;;8.68;3.20;;;;;;;23.55;100.00;95524.09;4793072;30;20402;-90
2022/05/20 08:37:54;;;;;;;4.97;2.85;;;;;;;23.66;100.00;95524.50;4778627;30;20036;-91
2022/05/20 08:40:22;;;;;;;8.85;2.80;;;;;;;23.93;100.00;95523.25;4778609;30;20042;-90
2022/05/20 08:43:02;;;;;;;8.93;3.20;;;;;;;23.70;100.00;95522.78;4808316;29;20149;-90
2022/05/20 08:45:32;;;;;;;9.40;2.90;;;;;;;23.34;100.00;95514.13;4778189;30;20138;-89
2022/05/20 08:47:58;;;;;;;10.23;3.40;;;;;;;23.29;100.00;95520.44;4778818;30;20074;-89
2022/05/20 08:50:29;;;;;;;9.35;3.03;;;;;;;23.64;100.00;95521.38;4808097;29;20462;-92
2022/05/20 08:52:56;;;;;;;5.68;3.10;;;;;;;23.81;100.00;95515.16;4793232;30;20074;-92
2022/05/20 08:55:21;;;;;;;11.05;3.20;;;;;;;24.00;100.00;95522.75;4777783;30;20031;-90
2022/05/20 08:58:07;;;;;;;7.10;3.28;;;;;;;24.03;100.00;95507.94;4807746;29;20043;-91
2022/05/20 09:00:33;;;;;;;6.75;2.95;;;;;;;24.12;100.00;95512.16;4793137;30;20380;-90
2022/05/20 09:03:06;;;;;;;6.35;2.90;;;;;;;23.80;100.00;95514.34;4777881;30;20031;-90
2022/05/20 09:05:36;;;;;;;7.00;3.10;;;;;;;24.08;100.00;95516.56;4792644;30;20042;-90
2022/05/20 09:08:08;;;;;;;8.48;3.05;;;;;;;24.20;100.00;95504.34;4792588;30;20061;-90
2022/05/20 09:10:43;;;;;;;7.72;3.53;;;;;;;24.24;100.00;95510.63;4793576;29;20027;-91
2022/05/20 09:13:14;;;;;;;5.85;2.92;;;;;;;24.26;98.51;95503.06;4793417;29;20127;-89
2022/05/20 09:15:53;;;;;;;6.60;3.05;;;;;;;23.96;100.00;95501.19;4777825;30;20050;-90
2022/05/20 09:18:34;;;;;;;10.85;3.15;;;;;;;24.03;100.00;95507.94;4779150;30;20046;-90
2022/05/20 09:21:00;;;;;;;6.63;2.90;;;;;;;24.29;100.00;95495.13;4777802;30;20318;-89
2022/05/20 09:23:26;;;;;;;5.65;3.10;;;;;;;24.33;100.00;95495.28;4807182;29;20350;-89
2022/05/20 09:26:10;;;;;;;9.75;3.40;;;;;;;24.39;100.00;95503.88;4777778;30;20027;-89
2022/05/20 09:28:45;;;;;;;4.10;2.63;;;;;;;24.48;100.00;95493.09;4792354;30;20030;-89
2022/05/20 09:31:19;;;;;;;10.05;3.28;;;;;;;24.82;100.00;95491.25;4777837;30;20042;-89
2022/05/20 09:33:56;;;;;;;9.48;3.13;;;;;;;24.72;100.00;95503.09;4807030;29;20047;-89
2022/05/20 09:36:48;;;;;;;5.78;2.97;;;;;;;24.90;100.00;95493.03;4792265;30;20038;-90
2022/05/20 09:39:38;;;;;;;7.15;3.22;;;;;;;25.09;100.00;95480.97;4777311;30;20511;-89
2022/05/20 09:42:16;;;;;;;10.90;3.22;;;;;;;24.98;98.67;95494.03;4777523;30;20027;-88
2022/05/20 09:44:45;;;;;;;4.75;3.05;;;;;;;24.75;92.82;95480.25;4792033;30;20031;-89
2022/05/20 09:47:32;;;;;;;4.95;3.20;;;;;;;24.70;100.00;95479.34;4792088;30;20034;-90
2022/05/20 09:50:22;;;;;;;10.80;3.20;;;;;;;24.86;98.35;95473.38;4806760;29;20031;-90
2022/05/20 09:52:52;;;;;;;8.48;3.40;;;;;;;24.84;100.00;95481.72;4806770;29;20494;-89
2022/05/20 09:55:29;;;;;;;13.90;2.95;;;;;;;25.17;91.12;95480.09;4792187;30;20039;-88
2022/05/20 09:57:57;;;;;;;6.30;3.00;;;;;;;25.07;91.87;95473.28;4792453;29;20066;-89
2022/05/20 10:00:32;;;;;;;10.77;3.25;;;;;;;25.26;95.68;95477.31;4806744;29;20031;-87
2022/05/20 10:03:20;;;;;;;7.35;3.53;;;;;;;25.21;98.52;95478.31;4777395;30;20384;-92
2022/05/20 10:05:56;;;;;;;10.13;3.33;;;;;;;24.92;98.43;95474.72;4806597;29;20089;-91
2022/05/20 10:08:47;;;;;;;9.57;3.13;;;;;;;25.20;100.00;95474.06;4792497;29;20496;-89
2022/05/20 10:11:12;;;;;;;7.97;3.47;;;;;;;25.32;100.00;95470.63;4799776;29;20350;-88
2022/05/20 10:13:54;;;;;;;7.05;3.28;;;;;;;25.33;100.00;95471.41;4788083;30;20032;-88
2022/05/20 10:16:34;;;;;;;11.30;3.50;;;;;;;24.98;100.00;95467.25;4788342;29;20122;-88
2022/05/20 10:19:29;;;;;;;9.27;3.63;;;;;;;25.30;95.77;95470.16;4774185;30;20042;-88
2022/05/20 10:22:10;;;;;;;5.88;2.80;;;;;;;25.11;92.27;95466.13;4773390;30;20027;-89
2022/05/20 10:25:01;;;;;;;7.65;2.83;;;;;;;25.19;94.91;95471.75;4774194;30;20127;-89
2022/05/20 10:27:40;;;;;;;9.93;3.38;;;;;;;25.23;85.57;95467.25;4774108;30;20084;-89
2022/05/20 10:33:05;;;;;;;13.38;3.60;;;;;;;25.15;90.11;95466.25;4773132;30;20066;-88
2022/05/20 10:35:56;;;;;;;4.82;3.40;;;;;;;24.76;84.35;95465.72;4801564;29;20041;-89
2022/05/20 10:39:09;;;;;;;9.90;2.97;;;;;;;25.04;90.42;95454.41;4805999;29;20093;-89
2022/05/20 10:41:37;;;;;;;11.97;3.43;;;;;;;25.20;92.06;95452.63;4790133;29;20086;-90
2022/05/20 10:50:52;;;;;;;7.05;2.92;;;;;;;25.59;93.76;95448.84;4791696;30;20043;-89
2022/05/20 10:53:50;;;;;;;10.15;3.53;;;;;;;25.59;91.90;95446.91;4790837;30;20034;-89
2022/05/20 10:56:30;;;;;;;11.68;3.75;;;;;;;25.41;95.17;95441.78;4790938;30;20104;-88
2022/05/20 10:59:23;;;;;;;7.22;3.88;;;;;;;25.09;96.80;95433.53;4805651;29;20043;-88
2022/05/20 11:02:06;;;;;;;6.45;3.03;;;;;;;25.60;92.26;95442.34;4791595;29;20358;-89
2022/05/20 11:04:41;;;;;;;;;;;;;;;25.88;97.09;95447.75;4806114;29;20499;-89
2022/05/20 11:07:09;;;;;;;8.50;3.55;;;;;;;25.59;94.09;95435.41;4791547;30;19918;-87
2022/05/20 11:09:41;;;;;;;9.40;4.20;;;;;;;25.57;98.01;95437.66;4805790;29;20041;-90
2022/05/20 11:12:10;;;;;;;10.73;4.07;;;;;;;25.65;100.00;95434.06;4805493;29;20070;-87
2022/05/20 11:15:07;;;;;;;14.57;4.47;;;;;;;25.53;96.91;95426.81;4805410;29;20039;-87
2022/05/20 11:18:12;;;;;;;7.00;4.10;;;;;;;25.09;98.25;95424.69;4790893;30;20319;-87
2022/05/20 11:20:58;;;;;;;10.98;4.03;;;;;;;25.62;97.86;95424.00;4805535;29;20035;-91
2022/05/20 11:23:49;;;;;;;12.52;3.58;;;;;;;25.66;100.00;95422.19;4805522;29;20035;-88
2022/05/20 11:26:29;;;;;;;15.25;5.20;;;;;;;25.65;100.00;95417.97;4790767;30;20426;-88
2022/05/20 11:29:04;;;;;;;5.97;3.80;;;;;;;25.81;100.00;95424.16;4805880;29;20035;-88
2022/05/20 11:31:43;;;;;;;10.25;4.03;;;;;;;25.49;100.00;95420.56;4805394;29;20031;-89
2022/05/20 11:34:40;;;;;;;9.23;4.70;;;;;;;25.72;100.00;95425.44;4791264;29;20038;-88
2022/05/20 11:37:24;;;;;;;10.20;4.20;;;;;;;25.98;99.44;95419.66;4791408;29;20031;-92
2022/05/20 11:40:02;;;;;;;13.80;5.10;;;;;;;26.34;100.00;95420.66;4790355;30;20035;-91
2022/05/20 11:43:10;;;;;;;7.47;3.85;;;;;;;26.61;100.00;95414.78;4790470;29;20062;-91
2022/05/20 11:45:57;;;;;;;14.38;4.60;;;;;;;26.10;100.00;95408.84;4793598;29;20042;-88
2022/05/20 11:48:32;;;;;;;9.05;4.25;;;;;;;26.32;94.75;95406.00;4809000;29;20122;-88
2022/05/20 11:50:58;;;;;;;10.13;4.30;;;;;;;26.11;100.00;95410.44;4794634;29;20069;-89
2022/05/20 11:53:43;;;;;;;12.75;4.13;;;;;;;26.31;100.00;95405.22;4794601;29;20062;-89
2022/05/20 11:56:33;;;;;;;14.70;4.47;;;;;;;26.08;100.00;95405.75;4793994;30;20502;-88
2022/05/20 11:59:07;;;;;;;15.07;4.10;;;;;;;26.20;98.59;95396.09;4793449;30;20047;-89
2022/05/20 12:01:34;;;;;;;5.32;3.80;;;;;;;26.33;100.00;95386.88;4793840;30;20046;-89
2022/05/20 12:04:07;;;;;;;11.32;4.43;;;;;;;26.32;93.66;95385.31;4808402;29;20379;-90
2022/05/20 12:06:41;;;;;;;8.60;4.40;;;;;;;26.13;100.00;95393.97;4808190;29;20088;-88
2022/05/20 12:09:30;;;;;;;9.90;4.50;;;;;;;25.90;93.16;95385.69;4793685;30;20042;-88
2022/05/20 12:12:22;;;;;;;5.07;3.45;;;;;;;26.22;98.45;95391.97;4808436;29;20387;-88
2022/05/20 12:15:08;;;;;;;8.70;4.30;;;;;;;26.69;93.88;95386.97;4793967;30;20121;-89
2022/05/20 12:17:42;;;;;;;11.30;4.43;;;;;;;26.42;100.00;95388.63;4793454;29;20039;-89
2022/05/20 12:25:59;;;;;;;8.25;4.43;;;;;;;25.58;98.16;95377.50;4794333;29;20047;-88
2022/05/20 12:28:24;;;;;;;9.98;4.18;;;;;;;26.62;100.00;95368.00;4793371;29;20126;-89
2022/05/20 12:31:18;;;;;;;8.10;4.07;;;;;;;26.24;92.63;95362.84;4793115;29;20063;-89
2022/05/20 12:34:00;;;;;;;7.65;3.80;;;;;;;26.19;93.95;95356.94;4793811;29;20353;-89
2022/05/20 12:36:28;;;;;;;6.85;4.00;;;;;;;26.03;93.28;95359.56;4792875;30;20088;-89
2022/05/20 12:39:18;;;;;;;10.77;4.00;;;;;;;26.10;91.56;95365.91;4792963;29;20144;-89
2022/05/20 12:41:59;;;;;;;8.80;3.45;;;;;;;26.68;87.14;95353.97;4792993;30;20042;-89
2022/05/20 12:44:32;;;;;;;12.23;4.20;;;;;;;26.05;89.91;95362.72;4792821;30;20452;-88
2022/05/20 12:47:32;;;;;;;8.57;3.83;;;;;;;26.38;87.60;95353.59;4792773;30;20463;-88
2022/05/20 12:50:21;;;;;;;7.00;4.20;;;;;;;26.65;88.62;95345.81;4807824;29;20059;-89